createdAt,value
2022-12-31T00:01:32.793Z,49.48
2022-12-31T00:04:01.261Z,49.85
2022-12-31T00:06:36.252Z,49.65
2022-12-31T00:09:06.957Z,49.48
2022-12-31T00:11:36.736Z,49.19
2022-12-31T00:14:05.810Z,49.38
2022-12-31T00:16:37.505Z,49.69
2022-12-31T00:19:07.840Z,49.50
2022-12-31T00:21:37.537Z,49.80
2022-12-31T00:24:07.136Z,50.33
2022-12-31T00:26:35.702Z,50.52
2022-12-31T00:29:05.253Z,50.30
2022-12-31T00:31:36.275Z,50.47
2022-12-31T00:34:05.720Z,50.35
2022-12-31T00:36:38.819Z,50.53
2022-12-31T00:39:08.316Z,50.72
2022-12-31T00:41:37.853Z,50.82
2022-12-31T00:44:06.184Z,50.77
2022-12-31T00:49:03.207Z,50.12
2022-12-31T00:51:31.637Z,50.75
2022-12-31T00:54:00.259Z,49.93
2022-12-31T00:56:30.704Z,49.98
2022-12-31T00:59:00.356Z,49.45
2022-12-31T01:01:31.967Z,48.80
2022-12-31T01:04:07.705Z,49.22
2022-12-31T01:06:36.577Z,48.81
2022-12-31T01:09:09.822Z,49.37
2022-12-31T01:11:38.291Z,49.69
2022-12-31T01:14:08.778Z,49.34
2022-12-31T01:16:46.399Z,49.29
2022-12-31T01:19:22.310Z,49.21
2022-12-31T01:21:52.475Z,49.15
2022-12-31T01:24:21.485Z,49.30
2022-12-31T01:26:49.763Z,49.98
2022-12-31T01:29:18.251Z,49.45
2022-12-31T01:31:46.497Z,49.68
2022-12-31T01:34:14.708Z,50.28
2022-12-31T01:36:43.175Z,49.81
2022-12-31T01:39:12.423Z,49.97
2022-12-31T01:41:43.889Z,50.75
2022-12-31T01:44:11.992Z,50.94
2022-12-31T01:46:49.923Z,50.81
2022-12-31T01:49:45.138Z,51.12
2022-12-31T01:52:28.541Z,51.22
2022-12-31T01:55:15.046Z,50.97
2022-12-31T01:57:46.856Z,51.30
2022-12-31T02:00:16.396Z,51.23
2022-12-31T02:02:44.765Z,50.88
2022-12-31T02:05:33.285Z,50.77
2022-12-31T02:08:03.118Z,50.64
2022-12-31T02:10:31.272Z,51.55
2022-12-31T02:13:00.204Z,51.76
2022-12-31T02:15:58.305Z,51.96
2022-12-31T02:18:47.091Z,51.26
2022-12-31T02:21:41.923Z,51.63
2022-12-31T02:24:16.112Z,51.69
2022-12-31T02:26:56.395Z,52.04
2022-12-31T02:29:30.309Z,52.21
2022-12-31T02:32:05.425Z,52.34
2022-12-31T02:34:58.448Z,52.22
2022-12-31T02:37:31.672Z,51.80
2022-12-31T02:40:00.928Z,51.58
2022-12-31T02:42:29.143Z,51.44
2022-12-31T02:44:57.339Z,51.36
2022-12-31T02:47:50.467Z,51.89
2022-12-31T02:50:36.269Z,51.81
2022-12-31T02:53:34.337Z,52.03
2022-12-31T02:56:22.673Z,52.03
2022-12-31T02:58:54.294Z,51.94
2022-12-31T03:01:33.004Z,51.91
2022-12-31T03:04:03.424Z,51.73
2022-12-31T03:06:31.998Z,52.17
2022-12-31T03:09:03.243Z,52.13
2022-12-31T03:11:31.807Z,52.31
2022-12-31T03:14:00.035Z,52.28
2022-12-31T03:16:28.453Z,52.43
2022-12-31T03:18:56.835Z,52.35
2022-12-31T03:21:25.330Z,52.20
2022-12-31T03:23:54.995Z,51.84
2022-12-31T03:26:24.433Z,52.28
2022-12-31T03:28:52.883Z,52.54
2022-12-31T03:31:25.126Z,52.60
2022-12-31T03:33:53.580Z,53.09
2022-12-31T03:36:25.133Z,52.61
2022-12-31T03:38:53.826Z,52.99
2022-12-31T03:41:22.026Z,52.78
2022-12-31T03:43:53.218Z,53.25
2022-12-31T03:46:23.816Z,52.78
2022-12-31T03:48:52.567Z,53.19
2022-12-31T03:51:23.934Z,52.85
2022-12-31T03:53:52.223Z,52.78
2022-12-31T03:56:20.891Z,53.16
2022-12-31T03:58:51.952Z,53.50
2022-12-31T04:01:21.469Z,53.19
2022-12-31T04:03:51.365Z,53.65
2022-12-31T04:06:20.194Z,53.34
2022-12-31T04:08:53.171Z,53.70
2022-12-31T04:11:21.869Z,53.36
2022-12-31T04:13:50.541Z,53.46
2022-12-31T04:16:19.323Z,53.71
2022-12-31T04:18:47.923Z,53.91
2022-12-31T04:21:16.535Z,53.98
2022-12-31T04:23:44.830Z,53.62
2022-12-31T04:26:13.427Z,53.44
2022-12-31T04:28:41.686Z,54.03
2022-12-31T04:31:10.410Z,53.84
2022-12-31T04:33:38.734Z,53.84
2022-12-31T04:36:08.668Z,53.53
2022-12-31T04:38:37.149Z,53.63
2022-12-31T04:41:05.729Z,53.88
2022-12-31T04:43:34.174Z,53.93
2022-12-31T04:46:02.860Z,53.72
2022-12-31T04:48:31.627Z,54.05
2022-12-31T04:51:00.152Z,54.11
2022-12-31T04:53:29.087Z,54.24
2022-12-31T04:55:57.638Z,54.14
2022-12-31T04:58:25.949Z,54.25
2022-12-31T05:00:54.686Z,54.43
2022-12-31T05:03:25.381Z,54.68
2022-12-31T05:05:54.608Z,54.81
2022-12-31T05:08:22.986Z,54.81
2022-12-31T05:10:51.568Z,54.25
2022-12-31T05:13:20.165Z,54.56
2022-12-31T05:15:48.906Z,55.21
2022-12-31T05:18:18.403Z,55.65
2022-12-31T05:20:48.453Z,55.93
2022-12-31T05:23:19.745Z,55.88
2022-12-31T05:25:48.948Z,55.45
2022-12-31T05:28:18.433Z,55.12
2022-12-31T05:30:50.465Z,55.44
2022-12-31T05:33:19.188Z,55.52
2022-12-31T05:35:47.683Z,55.68
2022-12-31T05:38:16.153Z,55.72
2022-12-31T05:40:44.984Z,55.77
2022-12-31T05:43:13.212Z,55.85
2022-12-31T05:45:41.584Z,55.76
2022-12-31T05:48:09.804Z,56.00
2022-12-31T05:50:38.057Z,56.12
2022-12-31T05:53:06.361Z,56.16
2022-12-31T05:55:34.599Z,56.29
2022-12-31T05:58:02.764Z,56.09
2022-12-31T06:00:31.153Z,55.72
2022-12-31T06:02:59.471Z,55.19
2022-12-31T06:05:27.791Z,55.33
2022-12-31T06:07:56.511Z,55.38
2022-12-31T06:10:24.987Z,55.59
2022-12-31T06:12:53.180Z,55.31
2022-12-31T06:15:21.465Z,54.94
2022-12-31T06:17:49.764Z,55.71
2022-12-31T06:20:18.047Z,55.73
2022-12-31T06:22:46.592Z,55.71
2022-12-31T06:25:15.045Z,55.91
2022-12-31T06:27:43.283Z,55.80
2022-12-31T06:30:12.520Z,55.71
2022-12-31T06:32:40.867Z,55.70
2022-12-31T06:35:11.323Z,55.68
2022-12-31T06:37:39.594Z,55.62
2022-12-31T06:40:08.504Z,55.27
2022-12-31T06:42:36.806Z,55.76
2022-12-31T06:45:05.844Z,56.03
2022-12-31T06:47:34.473Z,55.89
2022-12-31T06:50:02.618Z,56.10
2022-12-31T06:52:31.086Z,56.06
2022-12-31T06:54:59.594Z,55.96
2022-12-31T06:57:28.117Z,55.26
2022-12-31T06:59:57.185Z,55.22
2022-12-31T07:02:50.659Z,55.01
2022-12-31T07:05:51.491Z,55.05
2022-12-31T07:08:31.447Z,55.41
2022-12-31T07:11:18.290Z,55.14
2022-12-31T07:14:01.451Z,54.72
2022-12-31T07:17:03.649Z,54.09
2022-12-31T07:19:58.161Z,54.24
2022-12-31T07:22:26.731Z,54.74
2022-12-31T07:24:55.669Z,55.14
2022-12-31T07:28:10.601Z,55.78
2022-12-31T07:31:07.829Z,55.90
2022-12-31T07:33:51.784Z,55.64
2022-12-31T07:36:29.846Z,54.86
2022-12-31T07:39:15.790Z,55.09
2022-12-31T07:41:44.000Z,54.86
2022-12-31T07:44:34.051Z,54.60
2022-12-31T07:47:05.538Z,54.49
2022-12-31T07:49:34.650Z,54.60
2022-12-31T07:52:03.335Z,55.45
2022-12-31T07:54:31.600Z,56.54
2022-12-31T07:57:00.335Z,55.97
2022-12-31T08:00:09.020Z,54.78
2022-12-31T08:03:00.392Z,52.74
2022-12-31T08:05:59.494Z,50.88
2022-12-31T08:08:47.850Z,48.66
2022-12-31T08:11:30.822Z,45.14
2022-12-31T08:14:01.951Z,42.37
2022-12-31T08:16:30.629Z,41.48
2022-12-31T08:18:59.288Z,40.68
2022-12-31T08:21:36.569Z,39.58
2022-12-31T08:24:35.139Z,38.48
2022-12-31T08:27:04.006Z,37.42
2022-12-31T08:29:50.678Z,37.15
2022-12-31T08:32:41.096Z,36.48
2022-12-31T08:35:40.750Z,35.01
2022-12-31T08:38:21.359Z,32.57
2022-12-31T08:41:04.643Z,29.74
2022-12-31T08:44:05.332Z,27.39
2022-12-31T08:46:42.699Z,25.25
2022-12-31T08:49:11.299Z,24.32
2022-12-31T08:51:39.783Z,23.11
2022-12-31T08:54:11.315Z,21.99
2022-12-31T08:56:50.333Z,21.38
2022-12-31T08:59:22.235Z,20.32
2022-12-31T09:02:17.763Z,19.95
2022-12-31T09:04:48.970Z,19.18
2022-12-31T09:07:23.124Z,18.24
2022-12-31T09:10:18.389Z,17.91
2022-12-31T09:13:05.811Z,18.09
2022-12-31T09:15:42.208Z,18.33
2022-12-31T09:18:12.500Z,18.25
2022-12-31T09:20:43.751Z,18.10
2022-12-31T09:23:14.139Z,17.97
2022-12-31T09:25:53.862Z,17.95
2022-12-31T09:29:01.879Z,17.90
2022-12-31T09:31:38.881Z,17.71
2022-12-31T09:34:25.292Z,17.74
2022-12-31T09:36:59.230Z,17.70
2022-12-31T09:39:45.623Z,17.87
2022-12-31T09:42:13.591Z,17.83
2022-12-31T09:45:06.352Z,17.34
2022-12-31T09:47:52.867Z,17.20
2022-12-31T09:50:43.150Z,16.62
2022-12-31T09:53:17.049Z,16.37
2022-12-31T09:55:48.144Z,16.53
2022-12-31T09:58:34.697Z,16.60
2022-12-31T10:01:19.272Z,17.28
2022-12-31T10:04:08.733Z,18.19
2022-12-31T10:07:05.354Z,18.40
2022-12-31T10:09:50.098Z,18.47
2022-12-31T10:12:30.931Z,18.19
2022-12-31T10:15:05.027Z,17.93
2022-12-31T10:18:02.406Z,17.67
2022-12-31T10:20:51.346Z,17.04
2022-12-31T10:23:44.702Z,17.07
2022-12-31T10:26:29.394Z,16.86
2022-12-31T10:29:25.508Z,16.74
2022-12-31T10:31:53.664Z,16.92
2022-12-31T10:34:37.100Z,16.79
2022-12-31T10:37:11.221Z,16.97
2022-12-31T10:39:48.736Z,17.46
2022-12-31T10:42:55.021Z,17.58
2022-12-31T10:45:34.689Z,17.68
2022-12-31T10:48:28.713Z,17.62
2022-12-31T10:51:20.946Z,17.67
2022-12-31T10:54:26.820Z,17.02
2022-12-31T10:57:12.764Z,16.80
2022-12-31T10:59:53.396Z,16.90
2022-12-31T11:02:40.699Z,17.00
2022-12-31T11:05:12.026Z,16.97
2022-12-31T11:08:02.321Z,17.20
2022-12-31T11:11:01.668Z,17.23
2022-12-31T11:13:48.837Z,17.48
2022-12-31T11:16:34.487Z,18.05
2022-12-31T11:19:31.215Z,18.80
2022-12-31T11:22:29.863Z,19.32
2022-12-31T11:25:16.275Z,19.46
2022-12-31T11:28:09.682Z,19.09
2022-12-31T11:31:06.436Z,18.81
2022-12-31T11:34:02.627Z,18.80
2022-12-31T11:36:49.905Z,18.49
2022-12-31T11:39:31.396Z,18.51
2022-12-31T11:42:20.385Z,18.47
2022-12-31T11:45:04.688Z,18.23
2022-12-31T11:48:28.993Z,18.25
2022-12-31T11:51:09.931Z,18.76
2022-12-31T11:54:19.028Z,19.25
2022-12-31T11:57:25.038Z,19.74
2022-12-31T11:59:59.341Z,20.38
2022-12-31T12:02:38.214Z,21.65
2022-12-31T12:05:10.918Z,23.04
2022-12-31T12:07:39.899Z,24.67
2022-12-31T12:10:33.550Z,26.50
2022-12-31T12:13:15.066Z,27.14
2022-12-31T12:15:50.399Z,28.63
2022-12-31T12:18:42.355Z,29.28
2022-12-31T12:21:14.725Z,30.29
2022-12-31T12:24:17.631Z,32.72
2022-12-31T12:26:48.711Z,34.66
2022-12-31T12:29:30.574Z,35.75
2022-12-31T12:32:16.293Z,37.18
2022-12-31T12:34:49.664Z,37.54
2022-12-31T12:37:38.713Z,38.34
2022-12-31T12:40:22.881Z,38.36
2022-12-31T12:42:53.688Z,39.37
2022-12-31T12:45:26.220Z,40.11
2022-12-31T12:48:08.015Z,40.79
2022-12-31T12:50:44.016Z,40.82
2022-12-31T12:53:20.249Z,40.31
2022-12-31T12:56:38.011Z,40.56
2022-12-31T12:59:09.216Z,40.31
2022-12-31T13:01:42.777Z,39.66
2022-12-31T13:04:33.996Z,38.41
2022-12-31T13:07:10.017Z,38.27
2022-12-31T13:10:20.123Z,39.13
2022-12-31T13:16:01.613Z,39.57
2022-12-31T13:19:14.150Z,40.48
2022-12-31T13:21:53.541Z,41.69
2022-12-31T13:24:48.311Z,43.63
2022-12-31T13:27:28.940Z,43.41
2022-12-31T13:30:05.095Z,42.68
2022-12-31T13:32:45.258Z,42.88
2022-12-31T13:35:35.075Z,42.84
2022-12-31T13:38:29.824Z,43.07
2022-12-31T13:40:58.128Z,43.35
2022-12-31T13:43:35.546Z,43.65
2022-12-31T13:46:13.597Z,45.29
2022-12-31T13:49:10.417Z,46.04
2022-12-31T13:51:53.763Z,47.21
2022-12-31T13:54:22.034Z,47.49
2022-12-31T13:56:52.376Z,48.81
2022-12-31T13:59:43.501Z,49.66
2022-12-31T14:02:41.332Z,49.73
2022-12-31T14:05:12.728Z,49.95
2022-12-31T14:08:02.131Z,50.87
2022-12-31T14:10:39.402Z,51.48
2022-12-31T14:13:22.927Z,52.51
2022-12-31T14:16:17.277Z,52.79
2022-12-31T14:19:12.313Z,54.38
2022-12-31T14:22:04.247Z,55.77
2022-12-31T14:24:44.126Z,56.19
2022-12-31T14:27:24.855Z,56.74
2022-12-31T14:30:06.656Z,57.15
2022-12-31T14:32:57.393Z,57.35
2022-12-31T14:35:31.491Z,57.51
2022-12-31T14:38:04.780Z,57.03
2022-12-31T14:40:43.971Z,56.19
2022-12-31T14:43:49.495Z,55.44
2022-12-31T14:46:36.626Z,54.83
2022-12-31T14:49:47.160Z,53.81
2022-12-31T14:52:18.036Z,53.71
2022-12-31T14:54:46.283Z,53.61
2022-12-31T14:57:17.753Z,53.97
2022-12-31T15:00:00.192Z,54.72
2022-12-31T15:02:35.631Z,54.99
2022-12-31T15:05:16.725Z,55.15
2022-12-31T15:07:48.182Z,55.29
2022-12-31T15:10:25.375Z,55.66
2022-12-31T15:13:07.338Z,56.24
2022-12-31T15:16:02.286Z,57.29
2022-12-31T15:19:02.853Z,57.67
2022-12-31T15:21:34.187Z,58.94
2022-12-31T15:24:13.339Z,59.80
2022-12-31T15:26:58.912Z,60.22
2022-12-31T15:29:51.557Z,60.90
2022-12-31T15:32:25.395Z,60.80
2022-12-31T15:35:30.010Z,60.77
2022-12-31T15:38:15.824Z,60.85
2022-12-31T15:40:52.445Z,61.28
2022-12-31T15:43:44.129Z,61.98
2022-12-31T15:46:21.188Z,62.58
2022-12-31T15:49:04.277Z,63.29
2022-12-31T15:52:01.615Z,63.89
2022-12-31T15:54:42.721Z,64.39
2022-12-31T15:57:23.023Z,65.76
2022-12-31T15:59:58.471Z,66.50
2022-12-31T16:02:29.282Z,67.35
2022-12-31T16:04:57.703Z,68.24
2022-12-31T16:07:28.493Z,69.31
2022-12-31T16:10:00.472Z,70.42
2022-12-31T16:12:39.409Z,70.34
2022-12-31T16:15:22.186Z,71.38
2022-12-31T16:18:05.522Z,72.34
2022-12-31T16:20:40.880Z,73.41
2022-12-31T16:23:42.065Z,74.36
2022-12-31T16:26:12.063Z,75.76
2022-12-31T16:28:40.450Z,76.66
2022-12-31T16:31:17.004Z,77.35
2022-12-31T16:33:46.555Z,78.13
2022-12-31T16:36:20.469Z,79.33
2022-12-31T16:38:49.327Z,79.73
2022-12-31T16:41:19.205Z,80.09
2022-12-31T16:43:51.039Z,80.41
2022-12-31T16:46:38.448Z,81.20
2022-12-31T16:49:19.092Z,81.39
2022-12-31T16:51:47.850Z,82.39
2022-12-31T16:54:26.272Z,82.38
2022-12-31T16:56:54.633Z,82.93
2022-12-31T16:59:35.720Z,83.41
2022-12-31T17:02:16.525Z,83.25
2022-12-31T17:04:56.101Z,83.76
2022-12-31T17:07:26.550Z,83.88
2022-12-31T17:10:07.028Z,83.95
2022-12-31T17:13:08.760Z,84.25
2022-12-31T17:15:41.656Z,84.02
2022-12-31T17:18:20.712Z,83.73
2022-12-31T17:20:54.600Z,83.45
2022-12-31T17:23:32.004Z,83.28
2022-12-31T17:26:07.492Z,83.39
2022-12-31T17:28:48.587Z,83.27
2022-12-31T17:31:38.408Z,82.92
2022-12-31T17:34:12.721Z,82.66
2022-12-31T17:36:52.209Z,82.60
2022-12-31T17:39:23.189Z,82.85
2022-12-31T17:41:55.889Z,83.09
2022-12-31T17:44:28.020Z,83.22
2022-12-31T17:46:56.370Z,83.07
2022-12-31T17:49:30.587Z,82.70
2022-12-31T17:51:58.978Z,82.39
2022-12-31T17:54:27.127Z,82.33
2022-12-31T17:56:55.331Z,82.14
2022-12-31T17:59:26.233Z,81.88
2022-12-31T18:01:55.076Z,81.63
2022-12-31T18:04:23.396Z,81.22
2022-12-31T18:06:52.029Z,80.90
2022-12-31T18:09:22.350Z,80.60
2022-12-31T18:11:50.570Z,80.54
2022-12-31T18:14:18.759Z,80.48
2022-12-31T18:16:47.295Z,80.59
2022-12-31T18:19:45.600Z,80.50
2022-12-31T18:22:04.695Z,80.43
2022-12-31T18:24:33.453Z,80.53
2022-12-31T18:27:01.626Z,80.46
2022-12-31T18:29:29.905Z,80.44
2022-12-31T18:32:01.036Z,80.39
2022-12-31T18:34:29.817Z,80.39
2022-12-31T18:36:59.457Z,80.27
2022-12-31T18:39:27.645Z,80.26
2022-12-31T18:41:56.437Z,80.24
2022-12-31T18:44:25.065Z,80.24
2022-12-31T18:46:53.316Z,80.30
2022-12-31T18:49:21.678Z,80.04
2022-12-31T18:51:50.058Z,79.98
2022-12-31T18:54:18.346Z,79.45
2022-12-31T18:56:50.221Z,79.34
2022-12-31T18:59:20.966Z,78.93
2022-12-31T19:01:49.553Z,78.60
2022-12-31T19:04:26.938Z,78.63
2022-12-31T19:06:56.999Z,78.42
2022-12-31T19:09:45.226Z,78.29
2022-12-31T19:12:15.418Z,77.91
2022-12-31T19:14:43.688Z,77.64
2022-12-31T19:17:12.020Z,77.31
2022-12-31T19:19:40.308Z,76.66
2022-12-31T19:22:15.053Z,76.11
2022-12-31T19:24:43.464Z,76.25
2022-12-31T19:27:14.890Z,75.95
2022-12-31T19:29:43.146Z,75.74
2022-12-31T19:32:11.891Z,74.10
2022-12-31T19:34:40.176Z,74.39
2022-12-31T19:37:19.553Z,73.78
2022-12-31T19:39:48.469Z,74.26
2022-12-31T19:42:17.511Z,73.90
2022-12-31T19:44:45.847Z,73.12
2022-12-31T19:47:14.482Z,72.51
2022-12-31T19:49:43.029Z,71.88
2022-12-31T19:52:11.384Z,71.02
2022-12-31T19:54:39.640Z,71.25
2022-12-31T19:57:07.952Z,70.51
2022-12-31T19:59:36.630Z,69.83
2022-12-31T20:02:04.982Z,68.37
2022-12-31T20:04:33.391Z,69.10
2022-12-31T20:07:01.722Z,68.36
2022-12-31T20:09:30.118Z,69.00
2022-12-31T20:11:58.573Z,68.29
2022-12-31T20:14:27.543Z,68.08
2022-12-31T20:16:55.903Z,67.86
2022-12-31T20:19:24.130Z,67.45
2022-12-31T20:21:52.401Z,66.28
2022-12-31T20:24:20.807Z,66.53
2022-12-31T20:26:49.114Z,66.35
2022-12-31T20:29:17.546Z,65.80
2022-12-31T20:31:45.735Z,65.94
2022-12-31T20:34:14.521Z,65.50
2022-12-31T20:36:42.962Z,65.24
2022-12-31T20:39:11.443Z,64.74
2022-12-31T20:41:40.191Z,64.86
2022-12-31T20:44:09.414Z,63.82
2022-12-31T20:46:37.746Z,63.56
2022-12-31T20:49:06.720Z,63.94
2022-12-31T20:51:35.461Z,63.64
2022-12-31T20:54:06.549Z,63.74
2022-12-31T20:56:37.516Z,64.08
2022-12-31T20:59:07.440Z,63.79
2022-12-31T21:02:11.682Z,63.83
2022-12-31T21:04:26.278Z,63.74
2022-12-31T21:06:54.994Z,63.18
2022-12-31T21:09:23.295Z,62.49
2022-12-31T21:11:51.645Z,61.93
2022-12-31T21:14:19.892Z,62.41
2022-12-31T21:16:48.349Z,62.37
2022-12-31T21:19:17.288Z,62.42
2022-12-31T21:21:45.731Z,62.57
2022-12-31T21:24:17.453Z,62.38
2022-12-31T21:26:48.696Z,62.92
2022-12-31T21:29:16.982Z,62.23
2022-12-31T21:31:45.173Z,62.69
2022-12-31T21:34:13.747Z,62.65
2022-12-31T21:36:42.056Z,62.66
2022-12-31T21:39:10.273Z,62.28
2022-12-31T21:41:38.949Z,62.02
2022-12-31T21:44:07.216Z,62.13
2022-12-31T21:46:35.677Z,61.39
2022-12-31T21:49:04.611Z,61.86
2022-12-31T21:51:32.872Z,61.48
2022-12-31T21:54:01.060Z,61.60
2022-12-31T21:56:29.742Z,61.83
2022-12-31T21:59:00.116Z,61.74
2022-12-31T22:01:28.601Z,61.58
2022-12-31T22:03:57.601Z,61.06
2022-12-31T22:06:26.374Z,60.92
2022-12-31T22:08:56.391Z,61.08
2022-12-31T22:11:28.376Z,59.80
2022-12-31T22:13:59.257Z,60.58
2022-12-31T22:16:27.547Z,60.61
2022-12-31T22:18:56.661Z,60.46
2022-12-31T22:21:27.400Z,60.64
2022-12-31T22:23:57.330Z,59.83
2022-12-31T22:26:28.150Z,60.06
2022-12-31T22:28:56.636Z,59.84
2022-12-31T22:31:27.647Z,58.91
2022-12-31T22:33:56.256Z,59.57
2022-12-31T22:36:26.513Z,59.81
2022-12-31T22:38:57.169Z,59.44
2022-12-31T22:41:27.859Z,59.43
2022-12-31T22:44:03.766Z,59.39
2022-12-31T22:46:34.481Z,59.91
2022-12-31T22:49:04.812Z,59.78
2022-12-31T22:51:57.198Z,59.65
2022-12-31T22:54:22.831Z,59.40
2022-12-31T22:56:51.112Z,59.34
2022-12-31T22:59:19.651Z,59.30
2022-12-31T23:01:48.111Z,59.63
2022-12-31T23:04:16.368Z,59.83
2022-12-31T23:06:45.206Z,58.59
2022-12-31T23:09:15.965Z,58.77
2022-12-31T23:11:44.709Z,58.82
2022-12-31T23:14:17.738Z,59.05
2022-12-31T23:16:46.443Z,59.32
2022-12-31T23:19:16.219Z,59.07
2022-12-31T23:21:45.236Z,59.52
2022-12-31T23:24:20.143Z,59.46
2022-12-31T23:26:51.149Z,59.13
2022-12-31T23:29:19.339Z,59.07
2022-12-31T23:31:47.617Z,57.81
2022-12-31T23:34:16.161Z,58.16
2022-12-31T23:36:44.756Z,58.40
2022-12-31T23:39:13.235Z,57.58
2022-12-31T23:41:41.946Z,58.47
2022-12-31T23:44:11.177Z,58.32
2022-12-31T23:46:40.279Z,58.52
2022-12-31T23:49:09.181Z,58.81
2022-12-31T23:51:37.795Z,58.93
2022-12-31T23:54:06.562Z,58.91
2022-12-31T23:56:34.920Z,59.60
2022-12-31T23:59:03.274Z,59.66
